DLH463 KMIA-EDDF
Flight info
| Callsign | DLH463 |
|---|---|
| Flight time | N/A |
| Altitude | 37000 |
| Route | FOLZZ3 SNAGY/M085F370 DCT ONGOT DCT DRYED/M085F390 M201 CARAC DCT RAFIN DCT 45N050W 46N040W 48N030W 50N020W DCT SOMAX DCT ATSUR/M085F410 DCT ARKIL/N0490F410 DCT OXLOW DCT KONAN UL607 SPI T180 NIVNU/N0460F230 T847 IMCOM IMCOM1A |
| Aircraft | A359/H-SDE2E3GHIJ3J4J5LM1ORWXY/LB1D1 |
Departure
| Time | N/A |
|---|---|
| Airport | Miami International Airport (KMIA) |
Arrival
| Time | 2026-04-15 21:53 |
|---|---|
| Airport | Frankfurt Main Airport (EDDF) |
| Time | Latitude | Longitude | Altitude | Speed | Heading |
|---|---|---|---|---|---|
| 2026-04-15 21:05 | 50.99295 | -3.08194 | 41190 ft | 538 kts | 88° |
| 2026-04-15 21:05 | 50.99487 | -3.02255 | 41182 ft | 539 kts | 90° |
| 2026-04-15 21:06 | 50.99724 | -2.90379 | 41051 ft | 538 kts | 89° |
| 2026-04-15 21:06 | 51.00088 | -2.78509 | 41041 ft | 539 kts | 88° |
| 2026-04-15 21:07 | 51.00565 | -2.66640 | 41049 ft | 538 kts | 88° |
| 2026-04-15 21:07 | 51.01072 | -2.54682 | 41048 ft | 538 kts | 88° |
| 2026-04-15 21:08 | 51.02034 | -2.30952 | 41051 ft | 538 kts | 88° |
| 2026-04-15 21:08 | 51.02933 | -2.07252 | 41062 ft | 537 kts | 88° |
| 2026-04-15 21:09 | 51.03857 | -1.83556 | 41065 ft | 537 kts | 88° |
| 2026-04-15 21:09 | 51.04809 | -1.59876 | 41074 ft | 536 kts | 88° |
| 2026-04-15 21:10 | 51.05694 | -1.36234 | 41107 ft | 536 kts | 89° |
| 2026-04-15 21:10 | 51.06530 | -1.12577 | 41079 ft | 536 kts | 89° |
| 2026-04-15 21:11 | 51.07319 | -0.88926 | 41073 ft | 535 kts | 89° |
| 2026-04-15 21:11 | 51.08058 | -0.65309 | 41077 ft | 535 kts | 89° |
| 2026-04-15 21:12 | 51.08750 | -0.41684 | 41101 ft | 535 kts | 89° |
| 2026-04-15 21:12 | 51.09394 | -0.18052 | 41101 ft | 535 kts | 90° |
| 2026-04-15 21:13 | 51.09991 | 0.05581 | 40894 ft | 534 kts | 90° |
| 2026-04-15 21:13 | 51.10271 | 0.17409 | 40781 ft | 534 kts | 90° |
| 2026-04-15 21:13 | 51.10539 | 0.29209 | 40673 ft | 534 kts | 90° |
| 2026-04-15 21:14 | 51.11036 | 0.52664 | 40638 ft | 534 kts | 90° |
| 2026-04-15 21:14 | 51.11269 | 0.64479 | 40742 ft | 533 kts | 90° |
| 2026-04-15 21:14 | 51.11489 | 0.76267 | 40865 ft | 533 kts | 90° |
| 2026-04-15 21:14 | 51.11697 | 0.88040 | 40993 ft | 533 kts | 91° |
| 2026-04-15 21:15 | 51.11894 | 0.99851 | 41120 ft | 533 kts | 91° |
| 2026-04-15 21:15 | 51.12251 | 1.23401 | 41121 ft | 532 kts | 91° |
| 2026-04-15 21:16 | 51.12561 | 1.46937 | 41113 ft | 532 kts | 91° |
| 2026-04-15 21:16 | 51.12823 | 1.70492 | 41121 ft | 532 kts | 91° |
| 2026-04-15 21:17 | 51.13038 | 1.94038 | 41140 ft | 531 kts | 91° |
| 2026-04-15 21:17 | 51.12189 | 2.17318 | 41146 ft | 526 kts | 97° |
| 2026-04-15 21:18 | 51.10890 | 2.40499 | 41132 ft | 525 kts | 98° |
| 2026-04-15 21:18 | 51.09496 | 2.63513 | 41137 ft | 520 kts | 103° |
| 2026-04-15 21:19 | 51.05823 | 2.85622 | 41138 ft | 516 kts | 110° |
| 2026-04-15 21:19 | 51.01783 | 3.07451 | 41146 ft | 514 kts | 110° |
| 2026-04-15 21:20 | 50.97742 | 3.29257 | 41136 ft | 514 kts | 110° |
| 2026-04-15 21:20 | 50.93673 | 3.50979 | 41142 ft | 513 kts | 110° |
| 2026-04-15 21:21 | 50.89554 | 3.72649 | 41148 ft | 513 kts | 110° |
| 2026-04-15 21:21 | 50.85369 | 3.94223 | 41147 ft | 512 kts | 111° |
| 2026-04-15 21:22 | 50.81182 | 4.15589 | 41157 ft | 512 kts | 111° |
| 2026-04-15 21:22 | 50.76929 | 4.37058 | 41160 ft | 512 kts | 111° |
| 2026-04-15 21:23 | 50.72636 | 4.58494 | 41158 ft | 512 kts | 111° |
| 2026-04-15 21:23 | 50.68441 | 4.79972 | 41153 ft | 512 kts | 110° |
| 2026-04-15 21:24 | 50.64223 | 5.01403 | 41155 ft | 511 kts | 111° |
| 2026-04-15 21:24 | 50.59794 | 5.22676 | 41151 ft | 510 kts | 111° |
| 2026-04-15 21:25 | 50.55366 | 5.43885 | 41158 ft | 510 kts | 112° |
| 2026-04-15 21:25 | 50.50919 | 5.65035 | 41150 ft | 510 kts | 111° |
| 2026-04-15 21:25 | 50.49878 | 5.70363 | 41007 ft | 510 kts | 110° |
| 2026-04-15 21:26 | 50.48890 | 5.75701 | 40499 ft | 509 kts | 109° |
| 2026-04-15 21:26 | 50.47915 | 5.81064 | 39714 ft | 513 kts | 109° |
| 2026-04-15 21:26 | 50.46932 | 5.86457 | 38956 ft | 515 kts | 110° |
| 2026-04-15 21:26 | 50.45934 | 5.91875 | 38066 ft | 517 kts | 110° |
| 2026-04-15 21:27 | 50.44924 | 5.97293 | 37250 ft | 518 kts | 111° |
| 2026-04-15 21:27 | 50.43907 | 6.02696 | 36472 ft | 516 kts | 111° |
| 2026-04-15 21:27 | 50.42884 | 6.08094 | 35783 ft | 515 kts | 111° |
| 2026-04-15 21:27 | 50.41860 | 6.13469 | 35023 ft | 515 kts | 111° |
| 2026-04-15 21:28 | 50.40829 | 6.18857 | 34171 ft | 517 kts | 111° |
| 2026-04-15 21:28 | 50.39788 | 6.24270 | 33206 ft | 519 kts | 111° |
| 2026-04-15 21:28 | 50.38744 | 6.29693 | 32297 ft | 520 kts | 111° |
| 2026-04-15 21:28 | 50.37695 | 6.35129 | 31369 ft | 522 kts | 111° |
| 2026-04-15 21:29 | 50.36736 | 6.40630 | 30451 ft | 527 kts | 106° |
| 2026-04-15 21:29 | 50.36163 | 6.46335 | 29327 ft | 533 kts | 101° |
| 2026-04-15 21:29 | 50.35737 | 6.52093 | 28472 ft | 530 kts | 99° |
| 2026-04-15 21:29 | 50.35367 | 6.57799 | 27789 ft | 524 kts | 98° |
| 2026-04-15 21:30 | 50.35023 | 6.63387 | 27090 ft | 519 kts | 98° |
| 2026-04-15 21:30 | 50.34680 | 6.68986 | 26375 ft | 515 kts | 98° |
| 2026-04-15 21:30 | 50.34335 | 6.74550 | 25655 ft | 511 kts | 98° |
| 2026-04-15 21:30 | 50.33993 | 6.80076 | 24963 ft | 507 kts | 98° |
| 2026-04-15 21:31 | 50.32343 | 6.90552 | 23634 ft | 488 kts | 117° |
| 2026-04-15 21:31 | 50.30940 | 6.95352 | 22848 ft | 483 kts | 118° |
| 2026-04-15 21:32 | 50.28110 | 7.04742 | 21454 ft | 471 kts | 118° |
| 2026-04-15 21:32 | 50.26729 | 7.09337 | 20900 ft | 463 kts | 118° |
| 2026-04-15 21:32 | 50.25373 | 7.13848 | 20311 ft | 456 kts | 118° |
| 2026-04-15 21:32 | 50.24486 | 7.16799 | 19914 ft | 452 kts | 118° |
| 2026-04-15 21:33 | 50.22713 | 7.22694 | 19143 ft | 445 kts | 118° |
| 2026-04-15 21:33 | 50.21844 | 7.25580 | 18760 ft | 442 kts | 117° |
| 2026-04-15 21:33 | 50.20539 | 7.29906 | 18139 ft | 439 kts | 117° |
| 2026-04-15 21:33 | 50.19247 | 7.34202 | 17544 ft | 435 kts | 117° |
| 2026-04-15 21:34 | 50.18136 | 7.38590 | 16982 ft | 433 kts | 111° |
| 2026-04-15 21:34 | 50.17132 | 7.43001 | 16426 ft | 430 kts | 111° |
| 2026-04-15 21:34 | 50.16131 | 7.47369 | 15868 ft | 426 kts | 111° |
| 2026-04-15 21:34 | 50.15124 | 7.51686 | 15312 ft | 422 kts | 112° |
| 2026-04-15 21:35 | 50.14256 | 7.56054 | 15165 ft | 422 kts | 104° |
| 2026-04-15 21:35 | 50.13936 | 7.60598 | 15064 ft | 422 kts | 91° |
| 2026-04-15 21:35 | 50.14080 | 7.65158 | 14831 ft | 421 kts | 86° |
| 2026-04-15 21:35 | 50.14345 | 7.69702 | 14589 ft | 422 kts | 85° |
| 2026-04-15 21:36 | 50.14636 | 7.74276 | 14294 ft | 425 kts | 85° |
| 2026-04-15 21:36 | 50.14933 | 7.78861 | 13922 ft | 425 kts | 85° |
| 2026-04-15 21:36 | 50.15231 | 7.83434 | 13529 ft | 422 kts | 84° |
| 2026-04-15 21:36 | 50.15525 | 7.87961 | 13147 ft | 418 kts | 84° |
| 2026-04-15 21:37 | 50.15817 | 7.92463 | 12709 ft | 416 kts | 84° |
| 2026-04-15 21:37 | 50.16101 | 7.96868 | 12206 ft | 413 kts | 84° |
| 2026-04-15 21:37 | 50.16385 | 8.01299 | 11707 ft | 409 kts | 84° |
| 2026-04-15 21:37 | 50.16665 | 8.05698 | 11211 ft | 406 kts | 84° |
| 2026-04-15 21:38 | 50.16942 | 8.10067 | 10718 ft | 403 kts | 84° |
| 2026-04-15 21:38 | 50.17214 | 8.14395 | 10251 ft | 400 kts | 84° |
| 2026-04-15 21:38 | 50.17484 | 8.18698 | 9724 ft | 397 kts | 84° |
| 2026-04-15 21:38 | 50.17750 | 8.22958 | 9310 ft | 392 kts | 84° |
| 2026-04-15 21:39 | 50.18011 | 8.27185 | 9198 ft | 391 kts | 84° |
| 2026-04-15 21:39 | 50.18271 | 8.31399 | 9192 ft | 390 kts | 84° |
| 2026-04-15 21:39 | 50.18528 | 8.35611 | 9191 ft | 390 kts | 84° |
| 2026-04-15 21:39 | 50.18784 | 8.39821 | 9191 ft | 389 kts | 84° |
| 2026-04-15 21:40 | 50.19038 | 8.44031 | 9123 ft | 390 kts | 85° |
| 2026-04-15 21:40 | 50.19284 | 8.48120 | 8722 ft | 365 kts | 85° |
| 2026-04-15 21:40 | 50.19512 | 8.51938 | 8132 ft | 343 kts | 85° |
| 2026-04-15 21:40 | 50.19726 | 8.55531 | 7603 ft | 322 kts | 85° |
| 2026-04-15 21:41 | 50.19926 | 8.58905 | 7145 ft | 304 kts | 85° |
| 2026-04-15 21:41 | 50.20114 | 8.62107 | 6678 ft | 289 kts | 86° |
| 2026-04-15 21:41 | 50.20294 | 8.65178 | 6168 ft | 281 kts | 86° |
| 2026-04-15 21:41 | 50.20469 | 8.68205 | 5664 ft | 279 kts | 85° |
| 2026-04-15 21:42 | 50.20643 | 8.71217 | 5210 ft | 278 kts | 85° |
| 2026-04-15 21:42 | 50.20815 | 8.74216 | 5020 ft | 278 kts | 85° |
| 2026-04-15 21:42 | 50.20987 | 8.77222 | 5004 ft | 278 kts | 85° |
| 2026-04-15 21:42 | 50.21158 | 8.80220 | 5007 ft | 278 kts | 85° |
| 2026-04-15 21:43 | 50.21330 | 8.83234 | 4963 ft | 278 kts | 85° |
| 2026-04-15 21:43 | 50.21526 | 8.86224 | 4800 ft | 276 kts | 82° |
| 2026-04-15 21:43 | 50.21961 | 8.89145 | 4573 ft | 276 kts | 72° |
| 2026-04-15 21:43 | 50.22564 | 8.91983 | 4309 ft | 275 kts | 75° |
| 2026-04-15 21:44 | 50.22779 | 8.94915 | 4076 ft | 268 kts | 95° |
| 2026-04-15 21:44 | 50.22300 | 8.97600 | 4013 ft | 248 kts | 120° |
| 2026-04-15 21:44 | 50.21240 | 8.99553 | 4015 ft | 227 kts | 146° |
| 2026-04-15 21:44 | 50.19888 | 9.00546 | 4012 ft | 206 kts | 170° |
| 2026-04-15 21:45 | 50.18521 | 9.00699 | 4017 ft | 192 kts | 184° |
| 2026-04-15 21:45 | 50.17196 | 9.00534 | 4008 ft | 191 kts | 189° |
| 2026-04-15 21:45 | 50.15839 | 9.00220 | 4007 ft | 202 kts | 192° |
| 2026-04-15 21:45 | 50.14457 | 8.99845 | 4005 ft | 205 kts | 192° |
| 2026-04-15 21:46 | 50.13041 | 8.99457 | 4019 ft | 204 kts | 192° |
| 2026-04-15 21:46 | 50.11635 | 8.99089 | 4009 ft | 206 kts | 191° |
| 2026-04-15 21:46 | 50.10294 | 8.98579 | 4004 ft | 192 kts | 202° |
| 2026-04-15 21:46 | 50.09151 | 8.97641 | 4009 ft | 183 kts | 217° |
| 2026-04-15 21:47 | 50.08257 | 8.96260 | 4008 ft | 181 kts | 234° |
| 2026-04-15 21:47 | 50.07687 | 8.94560 | 3910 ft | 174 kts | 248° |
| 2026-04-15 21:47 | 50.07278 | 8.92767 | 3546 ft | 178 kts | 251° |
| 2026-04-15 21:47 | 50.06887 | 8.90917 | 3352 ft | 181 kts | 251° |
| 2026-04-15 21:48 | 50.06496 | 8.89058 | 3275 ft | 180 kts | 251° |
| 2026-04-15 21:48 | 50.06172 | 8.87176 | 3183 ft | 180 kts | 259° |
| 2026-04-15 21:48 | 50.06126 | 8.85225 | 3093 ft | 181 kts | 271° |
| 2026-04-15 21:48 | 50.06219 | 8.83267 | 3013 ft | 182 kts | 273° |
| 2026-04-15 21:49 | 50.06329 | 8.81311 | 2936 ft | 182 kts | 273° |
| 2026-04-15 21:49 | 50.06437 | 8.79354 | 2852 ft | 182 kts | 273° |
| 2026-04-15 21:49 | 50.06541 | 8.77395 | 2775 ft | 182 kts | 273° |
| 2026-04-15 21:49 | 50.06644 | 8.75439 | 2554 ft | 181 kts | 273° |
| 2026-04-15 21:50 | 50.06744 | 8.73496 | 2331 ft | 180 kts | 273° |
| 2026-04-15 21:50 | 50.06811 | 8.71549 | 2079 ft | 179 kts | 268° |
| 2026-04-15 21:50 | 50.06711 | 8.69703 | 1861 ft | 164 kts | 255° |
| 2026-04-15 21:50 | 50.06272 | 8.68143 | 1661 ft | 152 kts | 242° |
| 2026-04-15 21:51 | 50.05872 | 8.66673 | 1456 ft | 142 kts | 249° |
| 2026-04-15 21:51 | 50.05564 | 8.65286 | 1282 ft | 134 kts | 250° |
| 2026-04-15 21:51 | 50.05259 | 8.63928 | 1098 ft | 133 kts | 249° |
| 2026-04-15 21:51 | 50.04940 | 8.62572 | 929 ft | 134 kts | 248° |
| 2026-04-15 21:52 | 50.04613 | 8.61209 | 742 ft | 135 kts | 248° |
| 2026-04-15 21:52 | 50.04292 | 8.59845 | 578 ft | 134 kts | 248° |
| 2026-04-15 21:52 | 50.03965 | 8.58488 | 392 ft | 133 kts | 247° |
| 2026-04-15 21:52 | 50.03655 | 8.57208 | 369 ft | 117 kts | 250° |
| 2026-04-15 21:53 | 50.03435 | 8.56274 | 366 ft | 55 kts | 249° |
| 2026-04-15 21:53 | 50.03320 | 8.55738 | 357 ft | 50 kts | 258° |
| 2026-04-15 21:53 | 50.03326 | 8.55366 | 357 ft | 0 kts | 280° |
| 2026-04-15 21:53 | 50.03334 | 8.55301 | 358 ft | 15 kts | 280° |
| 2026-04-15 21:54 | 50.03352 | 8.55145 | 355 ft | 4 kts | 281° |
| 2026-04-15 21:54 | 50.03359 | 8.55092 | 355 ft | 7 kts | 282° |
| 2026-04-15 21:54 | 50.03379 | 8.55014 | 357 ft | 9 kts | 295° |
| 2026-04-15 21:54 | 50.03412 | 8.54907 | 352 ft | 13 kts | 296° |
| 2026-04-15 21:55 | 50.03462 | 8.54843 | 357 ft | 0 kts | 338° |
| 2026-04-15 21:56 | 50.03482 | 8.54830 | 358 ft | 13 kts | 338° |
| 2026-04-15 21:56 | 50.03607 | 8.54756 | 359 ft | 22 kts | 339° |
| 2026-04-15 21:56 | 50.03748 | 8.54732 | 360 ft | 19 kts | 40° |
| 2026-04-15 21:57 | 50.03803 | 8.54923 | 363 ft | 20 kts | 69° |
| 2026-04-15 21:57 | 50.03855 | 8.55136 | 362 ft | 22 kts | 70° |
| 2026-04-15 21:57 | 50.03911 | 8.55369 | 363 ft | 24 kts | 69° |
| 2026-04-15 21:57 | 50.03971 | 8.55625 | 362 ft | 26 kts | 69° |
| 2026-04-15 21:58 | 50.04036 | 8.55898 | 364 ft | 28 kts | 69° |
| 2026-04-15 21:58 | 50.04105 | 8.56184 | 364 ft | 29 kts | 69° |
| 2026-04-15 21:58 | 50.04176 | 8.56477 | 367 ft | 30 kts | 69° |
| 2026-04-15 21:58 | 50.04231 | 8.56709 | 366 ft | 16 kts | 71° |
| 2026-04-15 21:59 | 50.04303 | 8.56812 | 372 ft | 15 kts | 13° |
| 2026-04-15 21:59 | 50.04413 | 8.56846 | 371 ft | 18 kts | 9° |
| 2026-04-15 21:59 | 50.04523 | 8.56885 | 368 ft | 13 kts | 32° |
| 2026-04-15 21:59 | 50.04578 | 8.57008 | 370 ft | 15 kts | 59° |
| 2026-04-15 22:00 | 50.04595 | 8.57053 | 372 ft | 7 kts | 60° |
| 2026-04-15 22:00 | 50.04597 | 8.57057 | 364 ft | 0 kts | 60° |